createdAt,value
2019-01-30T00:04:22.431Z,99519.63
2019-01-30T00:09:25.142Z,99501.48
2019-01-30T00:14:47.318Z,99491.23
2019-01-30T00:19:49.997Z,99489.91
2019-01-30T00:25:12.404Z,99485.25
2019-01-30T00:30:15.749Z,99471.50
2019-01-30T00:35:37.924Z,99462.28
2019-01-30T00:41:00.108Z,99454.03
2019-01-30T00:46:02.992Z,99459.77
2019-01-30T00:51:25.163Z,99449.55
2019-01-30T00:56:27.835Z,99459.70
2019-01-30T01:01:30.530Z,99438.20
2019-01-30T01:06:33.230Z,99438.98
2019-01-30T01:11:39.713Z,99441.84
2019-01-30T01:22:18.364Z,99418.62
2019-01-30T01:27:40.701Z,99416.41
2019-01-30T01:32:43.366Z,99411.28
2019-01-30T01:38:05.630Z,99404.72
2019-01-30T01:43:27.860Z,99398.05
2019-01-30T01:48:50.038Z,99429.14
2019-01-30T01:53:52.726Z,99394.88
2019-01-30T01:58:55.403Z,99386.07
2019-01-30T02:03:58.078Z,99381.75
2019-01-30T02:09:20.287Z,99375.98
2019-01-30T02:14:23.031Z,99102.17
2019-01-30T02:19:25.731Z,99371.98
2019-01-30T02:24:47.912Z,99363.30
2019-01-30T02:30:13.476Z,99218.83
2019-01-30T02:35:35.648Z,99372.75
2019-01-30T02:40:38.335Z,99355.45
2019-01-30T02:45:41.001Z,99345.16
2019-01-30T02:51:03.309Z,99340.58
2019-01-30T02:56:05.979Z,99365.23
2019-01-30T03:01:28.165Z,99326.35
2019-01-30T03:06:50.352Z,99321.20
2019-01-30T03:12:05.853Z,99329.70
2019-01-30T03:17:08.510Z,99340.98
2019-01-30T03:22:37.704Z,99312.89
2019-01-30T03:27:40.423Z,99327.79
2019-01-30T03:33:02.622Z,99302.92
2019-01-30T03:38:05.317Z,99190.33
2019-01-30T03:43:27.516Z,99296.38
2019-01-30T03:48:30.268Z,99337.11
2019-01-30T03:53:32.952Z,99288.95
2019-01-30T03:58:35.668Z,99281.11
2019-01-30T04:03:38.362Z,99276.27
2019-01-30T04:09:00.570Z,99270.98
2019-01-30T04:14:03.266Z,99270.45
2019-01-30T04:19:05.951Z,99261.72
2019-01-30T04:24:28.145Z,99252.08
2019-01-30T04:29:50.320Z,99240.09
2019-01-30T04:35:12.721Z,99241.28
2019-01-30T04:40:34.927Z,99252.41
2019-01-30T04:45:57.131Z,99230.22
2019-01-30T04:51:19.313Z,98890.64
2019-01-30T04:56:41.486Z,99221.09
2019-01-30T05:01:49.735Z,99218.83
2019-01-30T05:06:48.740Z,99213.78
2019-01-30T05:11:51.435Z,99209.99
2019-01-30T05:17:13.711Z,99212.83
2019-01-30T05:22:16.388Z,99212.28
2019-01-30T05:27:38.563Z,99193.50
2019-01-30T05:32:41.249Z,99203.80
2019-01-30T05:38:03.567Z,99183.70
2019-01-30T05:43:25.749Z,99173.06
2019-01-30T05:48:28.445Z,99199.33
2019-01-30T05:53:50.613Z,99186.95
2019-01-30T05:59:12.811Z,99187.43
2019-01-30T06:04:35.056Z,98820.69
2019-01-30T06:09:37.791Z,99189.52
2019-01-30T06:14:59.970Z,99193.39
2019-01-30T06:20:23.964Z,98796.88
2019-01-30T06:25:46.143Z,98913.59
2019-01-30T06:31:08.331Z,99202.73
2019-01-30T06:36:32.122Z,99171.20
2019-01-30T06:41:54.388Z,99057.05
2019-01-30T06:47:16.564Z,99194.82
2019-01-30T06:52:19.261Z,99177.03
2019-01-30T06:57:21.946Z,99160.47
2019-01-30T07:02:44.168Z,99165.05
2019-01-30T07:08:06.402Z,99168.84
2019-01-30T07:13:09.242Z,99184.87
2019-01-30T07:18:31.423Z,99151.38
2019-01-30T07:23:53.604Z,99176.58
2019-01-30T07:29:15.776Z,98806.69
2019-01-30T07:34:38.005Z,99150.78
2019-01-30T07:40:00.302Z,99139.47
2019-01-30T07:45:45.203Z,99143.66
2019-01-30T07:51:07.392Z,99144.30
2019-01-30T07:56:29.569Z,98840.05
2019-01-30T08:01:51.739Z,99137.25
2019-01-30T08:07:13.908Z,99169.95
2019-01-30T08:12:29.580Z,98667.84
2019-01-30T08:17:51.761Z,98752.23
2019-01-30T08:23:13.936Z,99131.92
2019-01-30T08:28:36.195Z,98886.40
2019-01-30T08:33:58.401Z,99137.78
2019-01-30T08:39:20.568Z,99130.48
2019-01-30T08:44:46.978Z,99116.34
2019-01-30T08:50:07.616Z,99006.39
2019-01-30T08:55:29.800Z,99128.65
2019-01-30T09:00:51.970Z,99101.47
2019-01-30T09:06:14.142Z,98781.44
2019-01-30T09:11:29.600Z,99107.49
2019-01-30T09:16:51.774Z,99080.38
2019-01-30T09:22:13.940Z,99044.57
2019-01-30T09:27:36.109Z,99080.91
2019-01-30T09:32:58.336Z,99099.27
2019-01-30T09:38:20.510Z,99075.86
2019-01-30T09:43:42.682Z,99092.67
2019-01-30T09:49:04.842Z,99061.22
2019-01-30T09:54:07.628Z,99065.14
2019-01-30T09:59:29.816Z,99054.83
2019-01-30T10:04:32.483Z,98799.27
2019-01-30T10:09:37.634Z,99056.37
2019-01-30T10:14:59.228Z,99061.08
2019-01-30T10:20:22.999Z,99086.89
2019-01-30T10:25:45.181Z,99056.03
2019-01-30T10:31:07.363Z,98965.23
2019-01-30T10:36:10.138Z,98818.36
2019-01-30T10:41:12.815Z,99062.59
2019-01-30T10:46:34.984Z,99059.90
2019-01-30T10:51:57.190Z,99082.73
2019-01-30T10:57:19.371Z,99074.52
2019-01-30T11:02:41.542Z,99073.53
2019-01-30T11:08:04.183Z,98775.02
2019-01-30T11:13:19.853Z,99043.09
2019-01-30T11:18:42.033Z,99067.98
2019-01-30T11:24:04.375Z,99033.19
2019-01-30T11:29:26.556Z,99049.77
2019-01-30T11:34:48.725Z,98644.22
2019-01-30T11:46:02.225Z,99036.86
2019-01-30T11:51:04.899Z,99002.31
2019-01-30T11:56:07.656Z,98997.66
2019-01-30T12:01:30.064Z,98996.16
2019-01-30T12:06:52.495Z,98989.63
2019-01-30T12:12:08.143Z,98989.86
2019-01-30T12:17:30.928Z,98988.19
2019-01-30T12:22:53.240Z,98984.92
2019-01-30T12:28:15.694Z,98977.98
2019-01-30T12:33:38.215Z,98933.53
2019-01-30T12:39:00.832Z,98972.80
2019-01-30T12:44:23.761Z,98964.06
2019-01-30T12:49:46.734Z,98686.39
2019-01-30T12:55:09.100Z,98956.09
2019-01-30T13:01:13.437Z,98955.03
2019-01-30T13:06:35.699Z,98714.13
2019-01-30T13:11:50.899Z,98976.19
2019-01-30T13:17:13.073Z,98977.16
2019-01-30T13:22:35.242Z,98952.16
2019-01-30T13:27:57.528Z,98955.41
2019-01-30T13:33:19.704Z,98787.76
2019-01-30T13:38:41.915Z,98622.75
2019-01-30T13:44:25.475Z,98936.30
2019-01-30T13:49:47.633Z,98949.98
2019-01-30T13:55:10.159Z,98942.66
2019-01-30T14:00:33.820Z,98951.59
2019-01-30T14:05:56.003Z,98830.08
2019-01-30T14:11:11.468Z,98957.52
2019-01-30T14:16:33.635Z,98963.47
2019-01-30T14:21:55.931Z,98987.97
2019-01-30T14:27:18.087Z,98957.61
2019-01-30T14:32:40.273Z,98959.17
2019-01-30T14:37:43.107Z,98968.87
2019-01-30T14:43:05.435Z,98952.13
2019-01-30T14:48:27.642Z,98973.45
2019-01-30T14:53:49.954Z,98942.33
2019-01-30T14:59:12.189Z,98941.19
2019-01-30T15:04:34.374Z,98948.36
2019-01-30T15:09:50.129Z,98663.81
2019-01-30T15:15:31.832Z,98950.73
2019-01-30T15:20:35.619Z,98954.11
2019-01-30T15:25:57.796Z,98958.04
2019-01-30T15:31:19.963Z,98953.16
2019-01-30T15:36:42.143Z,98953.68
2019-01-30T15:41:44.861Z,98957.94
2019-01-30T15:46:47.540Z,98966.13
2019-01-30T15:51:50.234Z,98960.78
2019-01-30T15:57:12.405Z,98961.00
2019-01-30T16:02:34.588Z,98978.39
2019-01-30T16:07:56.767Z,98953.98
2019-01-30T16:13:12.190Z,98950.90
2019-01-30T16:18:34.371Z,98853.39
2019-01-30T16:23:37.042Z,98975.84
2019-01-30T16:28:39.732Z,98954.94
2019-01-30T16:34:01.920Z,98953.38
2019-01-30T16:39:24.111Z,98849.67
2019-01-30T16:44:46.284Z,98956.05
2019-01-30T16:50:10.075Z,98965.31
2019-01-30T16:55:32.263Z,98846.45
2019-01-30T17:00:54.454Z,98960.69
2019-01-30T17:06:16.628Z,98952.14
2019-01-30T17:11:31.861Z,98949.72
2019-01-30T17:16:54.039Z,98645.95
2019-01-30T17:22:16.217Z,98962.44
2019-01-30T17:27:38.606Z,98998.59
2019-01-30T17:32:41.379Z,98971.19
2019-01-30T17:38:03.872Z,98976.50
2019-01-30T17:43:26.061Z,98936.38
2019-01-30T17:48:48.835Z,98979.17
2019-01-30T17:54:13.586Z,98976.72
2019-01-30T17:59:35.837Z,98644.71
2019-01-30T18:04:59.313Z,98981.39
2019-01-30T18:10:17.738Z,98674.03
2019-01-30T18:15:39.622Z,99018.19
2019-01-30T18:21:01.818Z,98989.84
2019-01-30T18:26:24.118Z,99005.14
2019-01-30T18:31:26.796Z,98986.42
2019-01-30T18:36:49.074Z,98994.00
2019-01-30T18:42:11.272Z,98985.66
2019-01-30T18:47:33.435Z,98933.13
2019-01-30T18:52:48.881Z,98981.45
2019-01-30T18:58:11.133Z,98988.19
2019-01-30T19:03:33.370Z,98985.88
2019-01-30T19:14:41.981Z,98990.86
2019-01-30T19:20:06.054Z,99002.07
2019-01-30T19:25:28.309Z,98980.06
2019-01-30T19:30:50.486Z,98982.36
2019-01-30T19:36:12.854Z,98981.45
2019-01-30T19:41:36.070Z,99005.40
2019-01-30T19:46:58.247Z,98756.19
2019-01-30T19:52:00.918Z,98991.54
2019-01-30T19:57:23.141Z,98989.25
2019-01-30T20:02:25.883Z,99005.52
2019-01-30T20:07:49.257Z,98999.13
2019-01-30T20:13:05.859Z,99028.91
2019-01-30T20:18:28.171Z,98905.80
2019-01-30T20:23:31.487Z,99014.03
2019-01-30T20:28:53.701Z,99010.02
2019-01-30T20:34:15.878Z,99005.46
2019-01-30T20:39:38.188Z,99015.91
2019-01-30T20:45:00.445Z,98766.95
2019-01-30T20:50:24.874Z,99017.31
2019-01-30T20:55:47.100Z,99046.30
2019-01-30T21:01:09.365Z,99024.52
2019-01-30T21:06:31.569Z,99047.02
2019-01-30T21:11:46.732Z,98748.77
2019-01-30T21:16:49.464Z,98820.48
2019-01-30T21:22:11.646Z,99052.74
2019-01-30T21:27:33.825Z,98833.77
2019-01-30T21:32:55.987Z,99038.73
2019-01-30T21:38:18.167Z,99089.19
2019-01-30T21:43:40.344Z,98941.41
2019-01-30T21:48:43.090Z,99087.59
2019-01-30T21:54:05.264Z,99066.35
2019-01-30T21:59:27.442Z,99067.84
2019-01-30T22:04:30.108Z,99097.02
2019-01-30T22:09:32.806Z,99090.44
2019-01-30T22:14:54.995Z,99092.98
2019-01-30T22:20:19.387Z,99123.87
2019-01-30T22:25:41.573Z,99144.06
2019-01-30T22:31:03.950Z,99136.04
2019-01-30T22:36:06.621Z,98876.41
2019-01-30T22:41:28.814Z,99147.74
2019-01-30T22:46:50.997Z,99121.77
2019-01-30T22:52:13.176Z,99134.31
2019-01-30T22:57:15.839Z,99145.58
2019-01-30T23:02:39.818Z,99133.41
2019-01-30T23:08:22.877Z,99146.06
2019-01-30T23:13:48.942Z,99147.09
2019-01-30T23:19:50.108Z,99155.56
2019-01-30T23:25:51.278Z,99103.31
2019-01-30T23:31:37.727Z,99156.45
2019-01-30T23:37:25.059Z,99153.06
2019-01-30T23:43:26.264Z,99160.51
2019-01-30T23:49:27.453Z,99159.48
2019-01-30T23:55:28.658Z,99163.68
